Time;durP1;ratioP1;P1;durP2;ratioP2;P2;SDS_P1;SDS_P2;PMS_P1;PMS_P2;Temp;Humidity;BMP_temperature;BMP_pressure;BME280_temperature;BME280_humidity;BME280_pressure;Samples;Min_cycle;Max_cycle;Signal;HPM_P1;HPM_P2
2024/03/03 00:00:13;;;;;;;3.20;0.95;;;;;;;19.06;43.59;99700.66;5009476;28;20030;-70
2024/03/03 00:02:39;;;;;;;1.73;0.90;;;;;;;19.19;43.67;99721.34;5007930;28;20488;-69
2024/03/03 00:05:05;;;;;;;3.03;0.90;;;;;;;19.14;43.69;99705.97;5013500;28;20049;-70
2024/03/03 00:07:30;;;;;;;1.90;1.00;;;;;;;19.12;43.47;99710.59;5011386;28;20297;-71
2024/03/03 00:09:56;;;;;;;1.70;0.88;;;;;;;19.15;43.54;99726.13;5012805;28;20052;-70
2024/03/03 00:12:21;;;;;;;1.85;1.00;;;;;;;19.21;43.56;99733.38;5015728;28;20033;-70
2024/03/03 00:14:46;;;;;;;2.65;1.00;;;;;;;19.17;43.20;99725.97;5009525;28;20029;-70
2024/03/03 00:17:13;;;;;;;2.13;0.80;;;;;;;19.13;43.38;99720.16;5005973;28;20026;-70
2024/03/03 00:19:40;;;;;;;3.38;1.20;;;;;;;19.17;43.21;99734.69;5012244;28;20275;-70
2024/03/03 00:22:05;;;;;;;1.67;0.90;;;;;;;19.19;43.20;99743.28;5014435;28;20434;-71
2024/03/03 00:24:30;;;;;;;2.28;1.00;;;;;;;19.18;43.23;99739.00;5009035;28;20037;-70
2024/03/03 00:26:56;;;;;;;1.83;0.80;;;;;;;19.16;43.26;99735.69;5010829;28;20088;-70
2024/03/03 00:29:21;;;;;;;2.17;1.00;;;;;;;19.13;43.33;99749.19;5011668;28;20547;-70
2024/03/03 00:31:46;;;;;;;2.65;1.02;;;;;;;19.14;43.10;99742.13;5012076;28;20037;-70
2024/03/03 00:34:12;;;;;;;1.83;0.80;;;;;;;19.14;43.06;99742.13;5009772;28;20510;-70
2024/03/03 00:36:37;;;;;;;2.67;1.02;;;;;;;19.07;43.14;99726.06;5011625;28;20091;-70
2024/03/03 00:39:04;;;;;;;1.85;0.90;;;;;;;19.13;43.16;99743.09;5009693;28;20034;-70
2024/03/03 00:41:29;;;;;;;2.22;1.10;;;;;;;19.15;43.05;99743.75;5007020;28;20065;-69
2024/03/03 00:43:54;;;;;;;2.00;1.00;;;;;;;19.02;43.09;99723.06;5003818;28;20053;-68
2024/03/03 00:46:20;;;;;;;1.60;0.95;;;;;;;19.00;42.83;99725.03;5008902;28;20289;-69
2024/03/03 00:48:45;;;;;;;2.65;1.23;;;;;;;19.11;42.83;99734.50;5011925;28;20055;-68
2024/03/03 00:51:10;;;;;;;3.92;1.10;;;;;;;19.09;42.90;99728.53;5011355;28;20197;-69
2024/03/03 00:53:35;;;;;;;2.15;0.95;;;;;;;18.99;43.01;99721.59;5013506;28;20029;-69
2024/03/03 00:56:01;;;;;;;2.30;0.90;;;;;;;18.96;42.98;99708.69;5005538;28;20355;-69
2024/03/03 00:58:26;;;;;;;2.78;1.00;;;;;;;18.96;42.88;99713.97;5011893;28;20481;-68
2024/03/03 01:00:52;;;;;;;2.55;1.20;;;;;;;19.06;42.89;99734.13;5008966;28;20041;-68
2024/03/03 01:03:18;;;;;;;1.98;1.00;;;;;;;18.91;42.81;99707.50;5008213;28;20034;-68
2024/03/03 01:05:44;;;;;;;2.70;1.13;;;;;;;18.99;42.73;99731.31;5011361;28;20166;-71
2024/03/03 01:08:10;;;;;;;1.60;0.90;;;;;;;19.02;42.78;99734.44;5011020;28;20036;-68
2024/03/03 01:10:36;;;;;;;2.65;1.00;;;;;;;18.90;42.77;99719.88;5010541;28;20037;-68
2024/03/03 01:13:02;;;;;;;2.88;1.10;;;;;;;18.93;42.92;99722.22;5009486;28;20065;-68
2024/03/03 01:15:27;;;;;;;2.92;1.10;;;;;;;18.92;43.02;99723.19;5008632;28;20033;-68
2024/03/03 01:17:53;;;;;;;1.40;0.85;;;;;;;18.94;42.84;99728.31;5013676;28;20084;-69
2024/03/03 01:20:18;;;;;;;2.60;1.05;;;;;;;18.96;42.84;99729.81;5011064;28;20141;-68
2024/03/03 01:22:44;;;;;;;2.35;1.10;;;;;;;18.90;42.96;99725.16;5009426;28;20030;-69
2024/03/03 01:25:09;;;;;;;2.05;0.95;;;;;;;18.87;42.83;99719.34;5010960;28;20390;-69
2024/03/03 01:27:35;;;;;;;2.63;1.00;;;;;;;18.96;42.70;99743.03;5012050;28;20041;-68
2024/03/03 01:30:00;;;;;;;2.55;1.05;;;;;;;18.91;42.80;99732.09;5009413;28;20029;-68
2024/03/03 01:32:25;;;;;;;2.28;0.90;;;;;;;18.93;42.88;99739.84;5011233;28;20355;-68
2024/03/03 01:34:51;;;;;;;2.47;1.10;;;;;;;18.77;42.58;99714.16;5010790;28;20056;-68
2024/03/03 01:37:20;;;;;;;1.90;0.90;;;;;;;18.87;42.78;99724.63;5007096;28;20112;-68
2024/03/03 01:39:46;;;;;;;2.35;1.00;;;;;;;18.83;42.61;99713.53;5001334;28;20061;-69
2024/03/03 01:42:11;;;;;;;2.35;1.10;;;;;;;18.88;42.76;99723.66;5012997;28;20046;-69
2024/03/03 01:44:37;;;;;;;2.00;1.00;;;;;;;18.85;42.75;99720.34;5009706;28;20025;-68
2024/03/03 01:47:03;;;;;;;2.33;1.05;;;;;;;18.90;42.65;99726.97;5011309;28;20480;-68
2024/03/03 01:49:31;;;;;;;3.03;1.05;;;;;;;18.79;42.59;99715.66;5010178;28;20050;-69
2024/03/03 01:51:56;;;;;;;2.30;1.13;;;;;;;18.85;42.61;99719.53;5008098;28;20042;-68
2024/03/03 01:54:22;;;;;;;2.58;0.90;;;;;;;18.80;42.42;99714.69;5014332;28;20381;-68
2024/03/03 01:56:49;;;;;;;3.22;1.25;;;;;;;18.82;42.62;99720.63;5006810;28;20088;-69
2024/03/03 01:59:15;;;;;;;2.33;1.15;;;;;;;18.73;42.65;99710.19;5007471;28;20037;-69
2024/03/03 02:01:42;;;;;;;2.42;1.20;;;;;;;18.74;42.62;99702.13;5007424;28;20034;-68
2024/03/03 02:04:09;;;;;;;2.95;1.02;;;;;;;18.81;42.46;99716.31;5005947;28;20562;-69
2024/03/03 02:06:36;;;;;;;2.25;1.05;;;;;;;18.82;42.49;99722.44;5009450;28;20427;-68
2024/03/03 02:09:01;;;;;;;2.35;1.05;;;;;;;18.79;42.49;99717.47;5011778;28;20042;-68
2024/03/03 02:11:30;;;;;;;2.40;1.10;;;;;;;18.79;42.74;99713.03;5011734;28;20041;-68
2024/03/03 02:13:55;;;;;;;3.28;1.27;;;;;;;18.66;42.67;99694.16;5008569;28;20034;-68
2024/03/03 02:16:20;;;;;;;1.80;1.00;;;;;;;18.78;42.61;99713.19;5006675;28;20538;-69
2024/03/03 02:18:46;;;;;;;2.88;1.30;;;;;;;18.80;42.84;99719.13;5009659;28;20037;-69
2024/03/03 02:21:12;;;;;;;2.38;1.10;;;;;;;18.80;42.45;99719.13;5013623;28;20641;-68
2024/03/03 02:23:37;;;;;;;3.03;1.05;;;;;;;18.78;42.71;99719.28;5012011;28;20063;-68
2024/03/03 02:26:03;;;;;;;2.25;1.20;;;;;;;18.66;42.65;99699.44;5009563;28;20509;-69
2024/03/03 02:28:29;;;;;;;2.13;1.05;;;;;;;18.42;42.73;99657.88;5006611;28;20025;-69
2024/03/03 02:30:54;;;;;;;2.70;1.20;;;;;;;18.75;42.36;99716.13;5013282;28;20037;-68
2024/03/03 02:33:19;;;;;;;1.65;0.88;;;;;;;18.72;42.39;99714.63;5011543;28;20467;-69
2024/03/03 02:35:45;;;;;;;2.28;1.00;;;;;;;18.62;42.35;99706.81;5009935;28;20065;-68
2024/03/03 02:38:10;;;;;;;2.38;1.08;;;;;;;18.72;42.50;99714.63;5015150;28;20037;-68
2024/03/03 02:40:36;;;;;;;2.38;1.00;;;;;;;18.63;42.40;99708.47;5014070;28;20038;-68
2024/03/03 02:43:02;;;;;;;2.35;1.08;;;;;;;18.73;42.74;99721.56;5015047;28;20555;-69
2024/03/03 02:45:27;;;;;;;3.38;1.15;;;;;;;18.71;42.33;99715.63;5015096;28;20041;-68
2024/03/03 02:47:54;;;;;;;3.00;1.30;;;;;;;18.72;42.23;99727.81;5011318;28;20046;-68
2024/03/03 02:50:20;;;;;;;2.63;1.20;;;;;;;18.72;42.64;99730.44;5016149;28;20038;-68
2024/03/03 02:52:45;;;;;;;2.38;1.10;;;;;;;18.58;42.47;99708.13;5021788;28;20052;-69
2024/03/03 02:55:11;;;;;;;2.88;1.33;;;;;;;18.68;42.54;99726.50;5012488;28;20033;-69
2024/03/03 02:57:36;;;;;;;2.92;1.27;;;;;;;18.56;42.45;99706.59;5011967;28;20037;-69
2024/03/03 03:00:02;;;;;;;2.88;1.23;;;;;;;18.62;42.18;99717.38;5006854;28;20304;-69
2024/03/03 03:02:27;;;;;;;2.63;1.20;;;;;;;18.67;42.28;99728.31;5012198;28;20034;-68
2024/03/03 03:04:53;;;;;;;2.72;1.23;;;;;;;18.57;42.39;99705.63;5008783;28;20034;-68
2024/03/03 03:07:18;;;;;;;2.25;1.10;;;;;;;18.60;42.43;99718.53;5013728;28;20034;-68
2024/03/03 03:09:45;;;;;;;2.65;1.20;;;;;;;18.64;42.55;99711.94;5017210;28;20133;-69
2024/03/03 03:12:10;;;;;;;2.83;1.30;;;;;;;18.54;42.48;99703.31;5005874;28;20030;-69
2024/03/03 03:14:35;;;;;;;3.20;1.40;;;;;;;18.64;42.37;99710.16;5015002;28;20464;-68
2024/03/03 03:17:01;;;;;;;2.58;1.13;;;;;;;18.64;42.15;99704.00;5016648;28;20078;-68
2024/03/03 03:19:29;;;;;;;2.50;1.20;;;;;;;18.57;42.24;99697.72;5007411;28;20079;-69
2024/03/03 03:21:55;;;;;;;3.08;1.25;;;;;;;18.64;42.22;99714.56;5013874;28;20514;-69
2024/03/03 03:24:20;;;;;;;3.30;1.33;;;;;;;18.60;42.42;99707.97;5017654;28;20037;-69
2024/03/03 03:26:45;;;;;;;2.60;1.20;;;;;;;18.56;42.22;99702.16;5005580;28;20332;-69
2024/03/03 03:29:11;;;;;;;2.65;1.15;;;;;;;18.54;42.46;99701.47;5009806;28;20045;-68
2024/03/03 03:31:36;;;;;;;2.38;1.15;;;;;;;18.59;42.16;99712.41;5005611;28;20025;-69
2024/03/03 03:34:01;;;;;;;2.45;1.10;;;;;;;18.59;42.36;99712.41;5011314;28;20464;-68
2024/03/03 03:36:27;;;;;;;3.67;1.15;;;;;;;18.58;42.35;99708.13;5026249;28;20084;-68
2024/03/03 03:38:52;;;;;;;2.58;1.10;;;;;;;18.42;42.25;99684.25;5014119;28;20025;-69
2024/03/03 03:41:17;;;;;;;2.88;1.23;;;;;;;18.48;42.34;99692.41;5013740;28;20037;-69
2024/03/03 03:43:43;;;;;;;2.53;1.10;;;;;;;18.58;42.47;99710.75;5012381;28;20026;-69
2024/03/03 03:46:08;;;;;;;3.03;1.20;;;;;;;18.52;42.55;99705.25;5014292;28;20034;-69
2024/03/03 03:48:33;;;;;;;2.92;1.35;;;;;;;18.43;42.08;99692.00;5011549;28;21534;-69
2024/03/03 03:50:59;;;;;;;3.10;1.30;;;;;;;18.54;42.50;99713.84;5009416;28;20026;-69
2024/03/03 03:53:24;;;;;;;2.60;1.27;;;;;;;18.56;42.43;99725.06;5013548;28;20152;-69
2024/03/03 03:55:49;;;;;;;2.72;1.35;;;;;;;18.54;42.36;99719.13;5013397;28;20026;-69
2024/03/03 03:58:14;;;;;;;2.53;1.23;;;;;;;18.57;42.17;99729.38;5012711;28;20661;-69
2024/03/03 04:00:40;;;;;;;2.65;1.30;;;;;;;18.44;42.23;99706.03;5011412;28;20057;-69
2024/03/03 04:03:06;;;;;;;2.70;1.40;;;;;;;18.45;42.33;99716.44;5011856;28;20037;-68
2024/03/03 04:05:31;;;;;;;3.95;1.38;;;;;;;18.56;42.16;99735.63;5008154;28;20703;-68
2024/03/03 04:07:56;;;;;;;3.25;1.40;;;;;;;18.55;42.25;99733.97;5007958;28;20038;-68
2024/03/03 04:10:22;;;;;;;2.80;1.30;;;;;;;18.55;42.18;99737.44;5018653;28;20040;-68
2024/03/03 04:12:47;;;;;;;2.47;1.25;;;;;;;18.50;42.15;99729.19;5014862;28;20539;-68
2024/03/03 04:15:14;;;;;;;2.40;1.23;;;;;;;18.42;42.20;99718.53;5016344;28;20029;-68
2024/03/03 04:17:40;;;;;;;2.92;1.40;;;;;;;18.51;42.00;99740.53;5005713;28;20492;-69
2024/03/03 04:20:06;;;;;;;2.60;1.23;;;;;;;18.44;42.18;99737.69;5014301;28;20079;-68
2024/03/03 04:22:32;;;;;;;3.17;1.40;;;;;;;18.48;41.98;99737.25;5005532;28;20308;-68
2024/03/03 04:24:57;;;;;;;2.78;1.20;;;;;;;18.46;42.40;99733.09;5009840;28;20483;-68
2024/03/03 04:27:22;;;;;;;3.05;1.25;;;;;;;18.51;42.27;99751.91;5010952;28;20060;-69
2024/03/03 04:29:48;;;;;;;2.45;1.27;;;;;;;18.38;42.23;99730.41;5010592;28;20077;-68
2024/03/03 04:32:13;;;;;;;2.40;1.30;;;;;;;18.38;42.42;99728.56;5009073;28;20034;-68
2024/03/03 04:34:39;;;;;;;2.50;1.10;;;;;;;18.36;41.98;99732.34;5014868;28;20056;-69
2024/03/03 04:37:09;;;;;;;2.78;1.38;;;;;;;18.43;42.25;99744.75;5005942;28;20064;-69
2024/03/03 04:39:35;;;;;;;3.40;1.40;;;;;;;18.37;41.98;99729.53;5010806;28;20034;-68
2024/03/03 04:42:02;;;;;;;4.07;1.38;;;;;;;18.45;42.02;99753.38;5012176;28;20037;-69
2024/03/03 04:44:31;;;;;;;3.00;1.40;;;;;;;18.34;42.24;99740.44;5017622;28;20037;-68
2024/03/03 04:46:56;;;;;;;3.70;1.50;;;;;;;18.36;42.09;99746.38;5009373;28;21335;-68
2024/03/03 04:49:22;;;;;;;3.60;1.70;;;;;;;18.30;41.96;99739.06;5013948;28;20039;-68
2024/03/03 04:51:47;;;;;;;3.38;1.38;;;;;;;18.41;42.02;99752.00;5009501;28;20025;-68
2024/03/03 04:54:12;;;;;;;2.85;1.05;;;;;;;18.44;42.07;99761.44;5013013;28;20284;-69
2024/03/03 04:56:38;;;;;;;3.00;1.35;;;;;;;18.34;42.13;99764.16;5014102;28;20041;-68
2024/03/03 04:59:03;;;;;;;3.03;1.50;;;;;;;18.33;41.95;99761.69;5011514;28;20245;-68
2024/03/03 05:01:28;;;;;;;3.17;1.40;;;;;;;18.28;41.99;99751.59;5013168;28;20029;-68
2024/03/03 05:03:54;;;;;;;3.75;1.50;;;;;;;18.41;42.00;99778.41;5007858;28;20313;-69
2024/03/03 05:06:19;;;;;;;3.50;1.45;;;;;;;18.37;42.12;99774.38;5012313;28;20447;-68
2024/03/03 05:08:44;;;;;;;3.92;1.75;;;;;;;18.42;42.03;99790.63;5009718;28;20033;-69
2024/03/03 05:11:10;;;;;;;3.63;1.60;;;;;;;18.27;41.80;99768.38;5008801;28;20095;-68
2024/03/03 05:13:35;;;;;;;2.80;1.33;;;;;;;18.27;42.18;99766.56;5010604;28;20128;-69
2024/03/03 05:16:01;;;;;;;3.03;1.58;;;;;;;18.30;42.24;99771.53;5007663;28;20583;-69
2024/03/03 05:18:26;;;;;;;3.22;1.60;;;;;;;18.27;42.07;99761.28;5011029;28;20079;-69
2024/03/03 05:20:52;;;;;;;3.45;1.52;;;;;;;18.38;42.00;99777.88;5007245;28;20042;-69
2024/03/03 05:23:18;;;;;;;3.28;1.60;;;;;;;18.37;42.14;99778.84;5011048;28;20137;-69
2024/03/03 05:25:44;;;;;;;3.22;1.60;;;;;;;18.30;42.15;99779.44;5009031;28;20116;-68
2024/03/03 05:28:09;;;;;;;3.35;1.60;;;;;;;18.36;42.20;99790.38;5007454;28;20136;-68
2024/03/03 05:30:36;;;;;;;3.00;1.50;;;;;;;18.37;42.21;99792.03;5012284;28;20169;-69
2024/03/03 05:33:08;;;;;;;2.97;1.73;;;;;;;18.27;42.03;99785.03;5007186;28;20038;-68
2024/03/03 05:35:34;;;;;;;3.88;1.98;;;;;;;18.34;42.17;99795.81;5012315;28;20057;-69
2024/03/03 05:38:00;;;;;;;2.88;1.50;;;;;;;18.37;41.87;99811.31;5010091;28;20033;-69
2024/03/03 05:40:26;;;;;;;2.88;1.40;;;;;;;18.27;41.92;99786.84;5012384;28;20044;-68
2024/03/03 05:42:51;;;;;;;4.00;1.63;;;;;;;18.26;41.98;99793.09;5012353;28;20038;-69
2024/03/03 05:45:17;;;;;;;3.28;1.85;;;;;;;18.34;42.04;99806.38;5009849;28;20281;-69
2024/03/03 05:47:42;;;;;;;3.20;1.67;;;;;;;18.35;42.10;99812.47;5001382;28;20515;-68
2024/03/03 05:50:08;;;;;;;3.40;1.75;;;;;;;18.34;42.03;99811.66;5002630;28;20037;-69
2024/03/03 05:52:33;;;;;;;4.70;1.67;;;;;;;18.31;42.05;99818.03;5008210;28;20033;-69
2024/03/03 05:54:59;;;;;;;3.70;1.80;;;;;;;18.22;42.15;99804.94;5010794;28;20045;-68
2024/03/03 05:57:24;;;;;;;3.35;1.55;;;;;;;18.30;42.10;99820.81;5009267;28;20128;-69
2024/03/03 05:59:50;;;;;;;3.08;1.40;;;;;;;18.30;42.05;99824.28;5012883;28;20030;-69
2024/03/03 06:02:15;;;;;;;3.50;1.85;;;;;;;18.14;42.04;99803.03;5005814;28;20034;-69
2024/03/03 06:04:40;;;;;;;3.58;1.80;;;;;;;18.23;42.37;99817.97;5010421;28;20038;-69
2024/03/03 06:07:06;;;;;;;3.40;1.45;;;;;;;18.25;42.00;99823.09;5012196;28;20036;-69
2024/03/03 06:09:31;;;;;;;3.38;1.70;;;;;;;18.21;41.89;99805.91;5004575;28;20034;-69
2024/03/03 06:12:00;;;;;;;4.55;1.60;;;;;;;18.24;42.20;99816.97;5000958;28;20030;-68
2024/03/03 06:14:25;;;;;;;3.38;1.90;;;;;;;18.25;42.20;99817.81;5010004;28;20057;-68
2024/03/03 06:16:51;;;;;;;4.45;1.85;;;;;;;18.30;42.05;99826.94;5003674;28;20117;-69
2024/03/03 06:19:16;;;;;;;3.47;1.77;;;;;;;18.11;42.25;99798.88;5008755;28;20104;-69
2024/03/03 06:21:41;;;;;;;3.03;1.60;;;;;;;18.24;41.96;99824.06;5016226;28;20065;-69
2024/03/03 06:24:07;;;;;;;3.72;2.08;;;;;;;18.20;42.29;99820.06;5017798;28;20036;-69
2024/03/03 06:26:34;;;;;;;3.80;2.03;;;;;;;18.28;41.78;99836.81;5005932;28;20502;-68
2024/03/03 06:28:59;;;;;;;3.38;1.77;;;;;;;18.19;42.10;99832.41;5007310;28;20045;-69
2024/03/03 06:31:25;;;;;;;3.55;1.83;;;;;;;18.30;42.15;99857.75;5009807;28;20037;-69
2024/03/03 06:33:50;;;;;;;3.17;1.73;;;;;;;18.23;42.23;99854.03;5009655;28;20033;-69
2024/03/03 06:36:18;;;;;;;3.78;1.80;;;;;;;18.26;42.28;99864.28;5010782;28;20038;-69
2024/03/03 06:38:43;;;;;;;3.15;1.60;;;;;;;18.15;42.17;99844.25;5004096;28;20034;-69
2024/03/03 06:41:09;;;;;;;3.83;1.80;;;;;;;18.27;42.11;99865.97;5015031;28;20502;-69
2024/03/03 06:43:34;;;;;;;3.40;1.77;;;;;;;18.22;42.23;99862.94;5002197;28;20034;-69
2024/03/03 06:45:59;;;;;;;3.42;1.80;;;;;;;18.18;42.27;99853.66;5012314;28;20033;-68
2024/03/03 06:48:24;;;;;;;3.53;1.67;;;;;;;18.21;42.17;99858.66;5010561;28;20555;-70
2024/03/03 06:50:50;;;;;;;2.60;1.23;;;;;;;18.22;42.31;99858.50;5012224;28;20056;-69
2024/03/03 06:53:15;;;;;;;2.95;1.38;;;;;;;18.29;42.15;99874.56;5007840;28;20298;-69
2024/03/03 06:55:40;;;;;;;3.00;1.38;;;;;;;18.31;42.60;99880.53;5007808;28;20029;-68
2024/03/03 06:58:06;;;;;;;3.60;1.50;;;;;;;18.38;42.71;99897.41;5005031;28;20693;-68
2024/03/03 07:00:31;;;;;;;4.15;1.73;;;;;;;18.41;42.55;99906.84;5007537;28;20056;-69
2024/03/03 07:02:57;;;;;;;3.58;1.63;;;;;;;18.40;42.48;99906.00;5005471;28;20033;-69
2024/03/03 07:05:22;;;;;;;2.83;1.30;;;;;;;18.43;42.45;99913.59;5010354;28;20041;-69
2024/03/03 07:07:47;;;;;;;3.47;1.30;;;;;;;18.41;42.48;99917.38;5010899;28;20140;-69
2024/03/03 07:10:13;;;;;;;3.13;1.50;;;;;;;18.37;42.43;99901.00;5007410;28;20539;-68
2024/03/03 07:12:38;;;;;;;3.13;1.40;;;;;;;18.33;42.70;99896.22;5012378;28;20030;-69
2024/03/03 07:15:04;;;;;;;3.38;1.40;;;;;;;18.40;42.65;99908.63;5012600;28;20029;-69
2024/03/03 07:17:29;;;;;;;3.65;1.70;;;;;;;18.38;42.43;99907.13;5009538;28;20030;-69
2024/03/03 07:19:54;;;;;;;2.93;1.40;;;;;;;18.41;42.81;99905.03;5010418;28;20204;-70
2024/03/03 07:22:20;;;;;;;3.45;1.60;;;;;;;18.44;42.55;99917.91;5012694;28;20667;-69
2024/03/03 07:24:45;;;;;;;3.20;1.50;;;;;;;18.46;42.55;99931.78;5008299;28;20331;-69
2024/03/03 07:27:10;;;;;;;2.92;1.50;;;;;;;18.34;42.51;99911.03;5013285;28;20041;-69
2024/03/03 07:29:36;;;;;;;3.33;1.60;;;;;;;18.51;42.55;99933.97;5012595;28;20543;-69
2024/03/03 07:32:02;;;;;;;3.03;1.52;;;;;;;18.50;42.80;99929.69;5008905;28;20040;-69
2024/03/03 07:34:28;;;;;;;3.47;1.60;;;;;;;18.40;42.54;99910.44;5012003;28;20039;-69
2024/03/03 07:36:53;;;;;;;3.58;1.50;;;;;;;18.53;42.71;99928.53;5013251;28;20087;-69
2024/03/03 07:39:18;;;;;;;3.37;1.30;;;;;;;18.36;42.28;99899.38;5012451;28;20062;-69
2024/03/03 07:41:44;;;;;;;3.30;1.58;;;;;;;18.45;42.63;99909.03;5013821;28;20317;-69
2024/03/03 07:44:09;;;;;;;3.28;1.52;;;;;;;18.55;42.61;99910.75;5013424;28;20025;-69
2024/03/03 07:46:35;;;;;;;4.40;1.60;;;;;;;18.58;42.64;99905.16;5015470;28;20029;-69
2024/03/03 07:49:01;;;;;;;4.18;1.50;;;;;;;18.44;42.58;99888.06;5012866;28;20499;-69
2024/03/03 07:51:26;;;;;;;3.10;1.42;;;;;;;18.48;42.57;99881.50;5009031;28;20040;-69
2024/03/03 07:53:51;;;;;;;2.80;1.50;;;;;;;18.47;42.49;99878.03;5011478;28;20438;-69
2024/03/03 07:56:17;;;;;;;2.88;1.30;;;;;;;18.52;42.53;99877.59;5012306;28;20471;-70
2024/03/03 07:58:42;;;;;;;2.90;1.40;;;;;;;18.53;42.68;99870.50;5014557;28;20115;-70
2024/03/03 08:01:08;;;;;;;3.75;1.67;;;;;;;18.41;42.60;99860.16;5007899;28;20041;-69
2024/03/03 08:03:33;;;;;;;3.63;1.58;;;;;;;18.51;42.84;99868.00;5006960;28;20069;-68
2024/03/03 08:05:59;;;;;;;2.85;1.50;;;;;;;18.46;42.69;99867.63;5012153;28;20040;-68
2024/03/03 08:08:24;;;;;;;3.85;1.58;;;;;;;18.46;42.64;99863.19;5011258;28;20044;-68
2024/03/03 08:10:49;;;;;;;3.57;1.53;;;;;;;18.50;42.82;99882.19;5009739;28;20445;-69
2024/03/03 08:13:15;;;;;;;3.58;1.40;;;;;;;18.56;42.57;99900.03;5011551;28;20271;-68
2024/03/03 08:15:40;;;;;;;3.00;1.45;;;;;;;18.48;42.76;99894.69;5008122;28;20808;-69
2024/03/03 08:18:05;;;;;;;3.60;1.70;;;;;;;18.56;42.65;99907.13;5013259;28;20124;-70
2024/03/03 08:20:31;;;;;;;2.88;1.50;;;;;;;18.56;42.60;99912.41;5011920;28;20571;-70
2024/03/03 08:22:56;;;;;;;2.55;1.40;;;;;;;18.46;42.84;99896.66;5012015;28;20040;-69
2024/03/03 08:25:23;;;;;;;3.78;1.48;;;;;;;18.59;42.88;99922.69;5010846;28;20057;-70
2024/03/03 08:27:48;;;;;;;3.05;1.65;;;;;;;18.58;42.96;99942.97;5011408;28;20029;-70
2024/03/03 08:30:14;;;;;;;4.18;1.50;;;;;;;18.52;42.90;99937.44;5013236;28;20038;-70
2024/03/03 08:32:40;;;;;;;3.63;1.75;;;;;;;18.48;42.89;99931.63;5013275;28;20160;-70
2024/03/03 08:35:07;;;;;;;2.75;1.42;;;;;;;18.52;42.74;99933.00;5011008;28;20525;-70
2024/03/03 08:37:33;;;;;;;3.63;1.65;;;;;;;18.57;42.87;99943.94;5007617;28;20411;-70
2024/03/03 08:39:59;;;;;;;3.13;1.40;;;;;;;18.48;42.81;99936.91;5018085;28;20104;-67
2024/03/03 08:42:24;;;;;;;3.33;1.40;;;;;;;18.54;43.13;99953.97;5002934;28;20045;-68
2024/03/03 08:44:50;;;;;;;3.28;1.80;;;;;;;18.58;42.88;99966.72;5009920;28;20116;-68
2024/03/03 08:47:15;;;;;;;4.28;1.90;;;;;;;18.47;43.07;99927.34;5000460;28;20050;-68
2024/03/03 08:49:41;;;;;;;3.40;1.65;;;;;;;18.60;42.78;99943.63;5002060;28;20836;-68
2024/03/03 08:52:07;;;;;;;3.33;1.55;;;;;;;18.60;42.81;99948.09;5007885;28;20022;-68
2024/03/03 08:54:32;;;;;;;3.03;1.48;;;;;;;18.58;42.95;99945.59;5008330;28;20034;-68
2024/03/03 08:56:58;;;;;;;4.57;1.92;;;;;;;18.52;42.99;99926.88;5005805;28;20412;-67
2024/03/03 08:59:23;;;;;;;3.38;1.60;;;;;;;18.47;43.02;99919.44;5015125;28;20104;-68
2024/03/03 09:01:49;;;;;;;3.83;1.77;;;;;;;18.57;43.31;99938.66;5012750;28;20051;-70
2024/03/03 09:04:14;;;;;;;3.78;1.80;;;;;;;18.42;43.14;99924.31;5005936;28;20034;-69
2024/03/03 09:06:40;;;;;;;3.78;1.90;;;;;;;18.49;43.24;99933.28;5007849;28;20033;-68
2024/03/03 09:09:05;;;;;;;3.40;1.70;;;;;;;18.62;43.44;99961.97;5018016;28;20201;-69
2024/03/03 09:11:32;;;;;;;4.15;1.80;;;;;;;18.53;43.62;99962.84;5016515;28;20040;-69
2024/03/03 09:13:58;;;;;;;4.65;1.73;;;;;;;18.62;43.66;99978.63;5010645;28;20861;-69
2024/03/03 09:16:24;;;;;;;4.00;1.60;;;;;;;18.53;44.11;99960.22;5010907;28;20030;-69
2024/03/03 09:18:49;;;;;;;3.35;1.63;;;;;;;18.55;44.13;99967.00;5008024;28;20071;-69
2024/03/03 09:21:15;;;;;;;3.40;1.63;;;;;;;18.51;44.25;99962.19;5009905;28;20038;-68
2024/03/03 09:23:41;;;;;;;3.05;1.48;;;;;;;18.66;44.45;99987.09;5008476;28;20045;-69
2024/03/03 09:26:06;;;;;;;2.83;1.52;;;;;;;18.63;44.29;99976.81;5011153;28;20025;-72
2024/03/03 09:28:31;;;;;;;3.30;1.70;;;;;;;18.57;44.78;99965.03;5011737;28;20041;-68
2024/03/03 09:30:57;;;;;;;3.20;1.40;;;;;;;18.65;44.70;99965.13;5012993;28;20465;-69
2024/03/03 09:33:22;;;;;;;3.25;1.65;;;;;;;18.70;44.73;99975.22;5008947;28;20038;-71
2024/03/03 09:35:48;;;;;;;3.15;1.50;;;;;;;18.62;44.66;99956.69;5012921;28;20331;-69
2024/03/03 09:38:13;;;;;;;3.25;1.48;;;;;;;18.61;44.55;99958.50;5005576;28;20052;-69
2024/03/03 09:40:38;;;;;;;4.82;1.63;;;;;;;18.61;44.84;99961.13;5010921;28;20033;-69
2024/03/03 09:43:06;;;;;;;3.47;1.73;;;;;;;18.73;44.85;99977.56;5011200;28;20033;-70
2024/03/03 09:45:32;;;;;;;3.90;1.60;;;;;;;18.65;45.14;99959.03;5005169;28;20716;-73
2024/03/03 09:48:02;;;;;;;5.38;1.98;;;;;;;18.67;45.09;99950.00;5023674;28;20624;-73
2024/03/03 09:50:28;;;;;;;2.95;1.60;;;;;;;18.60;44.85;99933.06;5008625;28;20037;-74
2024/03/03 09:52:56;;;;;;;3.10;1.55;;;;;;;18.72;45.12;99949.50;5009902;28;20033;-73
2024/03/03 09:55:24;;;;;;;4.18;1.70;;;;;;;18.61;44.85;99926.84;5010884;28;20030;-73
2024/03/03 09:57:50;;;;;;;3.58;1.42;;;;;;;18.83;45.05;99967.78;5009197;28;20665;-75
2024/03/03 10:00:15;;;;;;;3.42;1.70;;;;;;;18.76;44.87;99950.88;5008854;28;20087;-71
2024/03/03 10:02:41;;;;;;;3.33;1.40;;;;;;;18.72;45.01;99944.22;5004699;28;20056;-71
2024/03/03 10:05:07;;;;;;;3.13;1.50;;;;;;;18.82;44.91;99955.56;5008816;28;20466;-71
2024/03/03 10:07:44;;;;;;;3.95;1.60;;;;;;;18.73;44.96;99945.91;5005629;28;20030;-72
2024/03/03 10:10:09;;;;;;;4.25;1.60;;;;;;;18.83;45.13;99954.59;5007188;28;20088;-74
2024/03/03 10:12:35;;;;;;;3.03;1.52;;;;;;;18.73;45.15;99942.44;5008114;28;20034;-72
2024/03/03 10:15:02;;;;;;;4.90;1.60;;;;;;;18.74;45.05;99947.56;5011039;28;20040;-72
2024/03/03 10:17:28;;;;;;;3.50;1.50;;;;;;;18.75;44.97;99954.50;5010090;28;20052;-73
2024/03/03 10:19:59;;;;;;;4.38;1.80;;;;;;;18.83;44.94;99981.00;5009772;28;20495;-74
2024/03/03 10:22:25;;;;;;;3.90;1.83;;;;;;;18.66;44.98;99940.41;5009559;28;20044;-74
2024/03/03 10:24:50;;;;;;;3.75;1.70;;;;;;;18.82;44.90;99971.41;5010085;28;20033;-72
2024/03/03 10:27:17;;;;;;;4.93;1.90;;;;;;;18.71;44.84;99962.84;5009077;28;20036;-74
2024/03/03 10:29:43;;;;;;;3.75;2.03;;;;;;;18.78;44.73;99969.22;5006256;28;20483;-74
2024/03/03 10:32:10;;;;;;;5.20;1.80;;;;;;;18.76;45.01;99961.44;5005625;28;20297;-77
2024/03/03 10:34:39;;;;;;;4.78;1.92;;;;;;;18.82;44.86;99981.16;5011494;28;20041;-73
2024/03/03 10:37:05;;;;;;;5.57;1.75;;;;;;;18.85;44.87;99980.88;5007840;28;20108;-71
2024/03/03 10:39:38;;;;;;;3.58;1.58;;;;;;;18.73;44.97;99953.81;5007641;28;20033;-71
2024/03/03 10:42:10;;;;;;;4.07;2.00;;;;;;;18.82;45.00;99967.94;5009489;28;20040;-71
2024/03/03 10:44:36;;;;;;;3.50;1.70;;;;;;;18.79;44.78;99965.59;5009712;28;20083;-71
2024/03/03 10:47:11;;;;;;;3.88;1.70;;;;;;;18.74;44.83;99955.50;5009193;28;20111;-70
2024/03/03 10:49:42;;;;;;;3.45;1.80;;;;;;;18.84;44.69;99969.47;5005404;28;20053;-71
2024/03/03 10:52:09;;;;;;;5.25;1.70;;;;;;;18.85;45.18;99972.97;5012188;28;20030;-69
2024/03/03 10:54:34;;;;;;;4.38;1.50;;;;;;;18.74;44.83;99958.13;5009259;28;20072;-71
2024/03/03 10:57:00;;;;;;;4.75;2.08;;;;;;;18.73;44.84;99961.75;5009907;28;20113;-70
2024/03/03 10:59:29;;;;;;;3.40;1.58;;;;;;;18.85;44.93;99988.78;5010090;28;20037;-69
2024/03/03 11:01:56;;;;;;;3.97;1.50;;;;;;;18.61;44.98;99944.47;5013128;28;20495;-70
2024/03/03 11:04:29;;;;;;;5.38;1.85;;;;;;;18.76;45.09;99965.91;5011876;28;20038;-71
2024/03/03 11:06:59;;;;;;;3.38;1.60;;;;;;;18.85;45.13;99981.69;5013957;28;20529;-70
2024/03/03 11:09:25;;;;;;;3.47;1.60;;;;;;;18.80;44.78;99976.00;5009060;28;20045;-69
2024/03/03 11:11:59;;;;;;;5.95;1.40;;;;;;;18.87;44.96;99983.34;5015737;28;20044;-69
2024/03/03 11:14:31;;;;;;;7.20;1.80;;;;;;;18.88;45.28;99985.81;5013783;28;20049;-71
2024/03/03 11:16:58;;;;;;;4.00;1.77;;;;;;;18.76;45.35;99969.34;5008152;28;20042;-73
2024/03/03 11:19:31;;;;;;;3.40;1.58;;;;;;;18.89;45.56;99982.22;5030475;28;20025;-73
2024/03/03 11:22:03;;;;;;;5.38;1.90;;;;;;;18.89;45.65;99981.41;5011067;28;20037;-72
2024/03/03 11:24:30;;;;;;;4.35;1.88;;;;;;;18.85;45.58;99979.06;5011779;28;20061;-74
2024/03/03 11:27:09;;;;;;;3.97;1.85;;;;;;;18.90;45.57;99978.59;5010539;28;20076;-71